Flight Track Log - Related Links

Times and Time Zones

All times are in EDT time to prevent confusion due to time zone crossing. See the UPS1331 flight status page for this flight to view local times or setup timezone preferences in your user account.

Time Position Orientation Groundspeed Altitude Reporting Facility
EDT Latitude Longitude Course Direction KTS MPH feet Rate Location/Type
Wed 10:21:20 PM 25.8040 -80.3020 North 28 32  Level FlightAware ADS-B
Wed 10:22:06 PM 25.8020 -80.3010 156° South 9 10 85 Level FlightAware ADS-B
Wed 10:24:00 PM 25.9771 -80.3442 340° North  Level FlightAware Approximate
Wed 10:25:00 PM 26.0791 -80.3819 343° North  Level FlightAware Approximate
Wed 10:25:55 PM 25.8010 -80.3010 343° North 25 29  Level FlightAware ADS-B
Wed 10:26:00 PM 26.1821 -80.4163 343° North  Level FlightAware Approximate
Wed 10:27:56 PM 25.8010 -80.2970 340° North 84 97  Level FlightAware ADS-B
Wed 10:28:00 PM 25.9957 -80.3516 340° North  Level FlightAware Approximate
Wed 10:28:24 PM 25.8020 -80.2750 87° East 152 175 600  Level FlightAware ADS-B
Wed 10:28:54 PM 25.8040 -80.2520 84° East 170 196 1,700 1,857 Climbing FlightAware ADS-B
Wed 10:29:06 PM 25.8050 -80.2400 85° East 195 224 1,900 1,500 Climbing FlightAware ADS-B
Wed 10:29:26 PM 25.8080 -80.2190 81° East 216 249 2,500 2,250 Climbing FlightAware ADS-B
Wed 10:29:54 PM 25.8120 -80.1860 82° East 242 278 3,700 2,182 Climbing FlightAware ADS-B
Wed 10:30:10 PM 25.8170 -80.1660 74° East 267 307 4,100 2,143 Climbing FlightAware ADS-B
Wed 10:30:22 PM 25.8260 -80.1540 50° Northeast 274 315 4,700 2,786 Climbing FlightAware ADS-B
Wed 10:30:38 PM 25.8460 -80.1440 24° Northeast 289 333 5,400 3,000 Climbing FlightAware ADS-B
Wed 10:31:06 PM 25.8820 -80.1520 349° North 288 331 6,900 3,167 Climbing FlightAware ADS-B
Wed 10:31:14 PM 25.8910 -80.1580 329° Northwest 290 334 7,300 3,158 Climbing FlightAware ADS-B
Wed 10:31:44 PM 25.9240 -80.1850 324° Northwest 293 337 8,900 2,684 Climbing FlightAware ADS-B
Wed 10:32:30 PM 25.9770 -80.2270 325° Northwest 324 373 10,700 1,313 Climbing FlightAware ADS-B
Wed 10:33:20 PM 26.0360 -80.2760 323° Northwest 357 411 11,000 1,722 Climbing FlightAware ADS-B
Wed 10:34:18 PM 26.1210 -80.3430 325° Northwest 395 455 13,800 2,411 Climbing FlightAware ADS-B
Wed 10:35:12 PM 26.2010 -80.4070 324° Northwest 406 467 15,500 1,133 Climbing FlightAware ADS-B
Wed 10:35:48 PM 26.2470 -80.4440 324° Northwest 406 467 15,500  Level FlightAware ADS-B
Wed 10:36:24 PM 26.2940 -80.4820 324° Northwest 406 467 15,500  Level FlightAware ADS-B
Wed 10:37:12 PM 26.3560 -80.5320 324° Northwest 406 467 15,500  Level FlightAware ADS-B
Wed 10:37:48 PM 26.4020 -80.5700 324° Northwest 406 467 15,500 2,903 Level FlightAware ADS-B
Wed 10:43:55 PM 27.3010 -80.7650 349° North 483 556 35,000 2,889 Climbing FlightAware ADS-B
Wed 10:44:33 PM 27.3700 -80.7890 343° North 483 556 35,000  Level FlightAware ADS-B
Wed 10:45:25 PM 27.4930 -80.8290 344° North 489 563 35,000  Level FlightAware ADS-B
Wed 10:46:15 PM 27.6100 -80.8680 344° North 487 560 35,000  Level FlightAware ADS-B
Wed 10:46:55 PM 27.6960 -80.8970 343° North 488 562 35,000  Level FlightAware ADS-B
Wed 10:47:41 PM 27.7780 -80.9250 343° North 487 560 35,000  Level FlightAware ADS-B
Wed 10:48:17 PM 27.8440 -80.9480 343° North 487 560 35,000  Level FlightAware ADS-B
Wed 10:48:53 PM 27.9100 -80.9700 344° North 487 560 35,000 1,538 Level FlightAware ADS-B
Wed 10:49:35 PM 28.0410 -81.0120 344° North 484 557 37,000 1,481 Climbing FlightAware ADS-B
Wed 10:50:14 PM 28.1120 -81.0370 343° North 484 557 37,000  Level FlightAware ADS-B
Wed 10:50:50 PM 28.1770 -81.0600 343° North 484 557 37,000  Level FlightAware ADS-B
Wed 10:51:38 PM 28.2640 -81.0900 343° North 484 557 37,000  Level FlightAware ADS-B
Wed 10:52:14 PM 28.3300 -81.1130 343° North 484 557 37,000  Level FlightAware ADS-B
Wed 10:53:00 PM 28.4790 -81.1600 345° North 471 542 37,000  Level FlightAware ADS-B
Wed 10:53:37 PM 28.5500 -81.1850 343° North 471 542 37,000  Level FlightAware ADS-B
Wed 10:54:24 PM 28.6560 -81.2200 344° North 470 541 37,000  Level FlightAware ADS-B
Wed 10:55:10 PM 28.7430 -81.2500 343° North 470 541 37,000  Level FlightAware ADS-B
Wed 10:55:37 PM 28.4300 -81.1440 163° South 479 551 37,000  Level FlightAware ADS-B
Wed 10:56:22 PM 28.6470 -81.2170 344° North 479 551 37,000  Level FlightAware ADS-B
Wed 10:57:04 PM 28.7260 -81.2440 343° North 478 550 37,000  Level FlightAware ADS-B
Wed 10:57:40 PM 28.7750 -81.2610 343° North 478 550 37,000  Level FlightAware ADS-B
Wed 10:58:22 PM 28.8490 -81.2860 344° North 478 550 37,000  Level FlightAware ADS-B
Wed 10:59:05 PM 28.9620 -81.3250 343° North 476 548 37,000  Level FlightAware ADS-B
Wed 11:00:02 PM 29.0790 -81.3650 343° North 476 548 37,000  Level FlightAware ADS-B
Wed 11:00:38 PM 29.1430 -81.3880 343° North 476 548 37,000  Level FlightAware ADS-B
Wed 11:01:28 PM 29.2330 -81.4190 343° North 476 548 37,000  Level FlightAware ADS-B
Wed 11:02:04 PM 29.2970 -81.4420 343° North 476 548 37,000  Level FlightAware ADS-B
Wed 11:02:38 PM 29.6900 -81.5760 344° North 469 540 37,000  Level FlightAware ADS-B
Wed 11:03:23 PM 29.7850 -81.6090 343° North 470 541 37,000  Level FlightAware ADS-B
Wed 11:04:12 PM 29.8700 -81.6390 343° North 469 540 37,000  Level FlightAware ADS-B
Wed 11:04:53 PM 29.8910 -81.6460 344° North 468 539 37,000  Level FlightAware ADS-B
Wed 11:05:36 PM 29.8910 -81.6460 344° North 467 537 37,000  Level FlightAware ADS-B
Wed 11:06:16 PM 30.1450 -81.7340 343° North 465 535 37,000  Level FlightAware ADS-B
Wed 11:06:58 PM 30.2280 -81.7640 343° North 464 534 37,000  Level FlightAware ADS-B
Wed 11:07:53 PM 30.3340 -81.8010 343° North 464 534 37,000  Level FlightAware ADS-B
Wed 11:08:46 PM 30.4530 -81.8430 343° North 462 532 37,000  Level FlightAware ADS-B
Wed 11:09:24 PM 30.5190 -81.8660 343° North 462 532 37,000  Level FlightAware ADS-B
Wed 11:10:12 PM 30.6020 -81.8960 343° North 462 532 37,000  Level FlightAware ADS-B
Wed 11:10:48 PM 30.6650 -81.9180 343° North 462 532 37,000  Level FlightAware ADS-B
Wed 11:11:27 PM 30.7330 -81.9420 343° North 462 532 37,000  Level FlightAware ADS-B
Wed 11:11:51 PM 30.7740 -81.9570 343° North 462 532 37,000  Level FlightAware ADS-B
Wed 11:12:39 PM 30.8580 -81.9870 343° North 462 532 37,000  Level FlightAware ADS-B
Wed 11:13:16 PM 30.9220 -82.0100 343° North 462 532 37,000  Level FlightAware ADS-B
Wed 11:14:04 PM 31.0060 -82.0390 344° North 462 532 37,000  Level FlightAware ADS-B
Wed 11:14:41 PM 31.0700 -82.0620 343° North 462 532 37,000  Level FlightAware ADS-B
Wed 11:15:41 PM 31.1740 -82.1000 343° North 462 532 37,000  Level FlightAware ADS-B
Wed 11:16:17 PM 31.2370 -82.1220 343° North 462 532 37,000  Level FlightAware ADS-B
Wed 11:16:53 PM 31.2990 -82.1440 343° North 462 532 37,000  Level FlightAware ADS-B
Wed 11:17:41 PM 31.3830 -82.1740 343° North 462 532 37,000  Level FlightAware ADS-B
Wed 11:18:17 PM 31.4450 -82.1970 342° North 462 532 37,000  Level FlightAware ADS-B
Wed 11:23:01 PM 32.1700 -82.4610 343° North 445 512 37,000  Level FlightAware ADS-B
Wed 11:23:41 PM 32.2450 -82.4880 343° North 450 518 37,000  Level FlightAware ADS-B
Wed 11:24:19 PM 32.3090 -82.5110 343° North 450 518 37,000  Level FlightAware ADS-B
Wed 11:25:06 PM 32.4120 -82.5500 342° North 461 531 37,000  Level FlightAware ADS-B
Wed 11:25:38 PM 32.4820 -82.5760 343° North 465 535 37,000  Level FlightAware ADS-B
Wed 11:26:21 PM 32.5710 -82.6080 343° North 470 541 37,000  Level FlightAware ADS-B
Wed 11:27:06 PM 32.6640 -82.6430 342° North 475 547 37,000  Level FlightAware ADS-B
Wed 11:27:43 PM 32.7440 -82.6730 342° North 476 548 37,000  Level FlightAware ADS-B
Wed 11:28:29 PM 32.8420 -82.7090 343° North 475 547 37,000  Level FlightAware ADS-B
Wed 11:29:07 PM 32.9200 -82.7380 343° North 475 547 37,000  Level FlightAware ADS-B
Wed 11:29:53 PM 33.0190 -82.7750 343° North 471 542 37,000  Level FlightAware ADS-B
Wed 11:30:33 PM 33.1020 -82.8060 343° North 469 540 37,000  Level FlightAware ADS-B
Wed 11:31:17 PM 33.1930 -82.8400 343° North 463 533 37,000  Level FlightAware ADS-B
Wed 11:31:53 PM 33.2630 -82.8670 342° North 458 527 37,000  Level FlightAware ADS-B
Wed 11:32:41 PM 33.3630 -82.9040 343° North 453 521 37,000  Level FlightAware ADS-B
Wed 11:33:22 PM 33.4440 -82.9350 342° North 449 517 37,000  Level FlightAware ADS-B
Wed 11:34:07 PM 33.5320 -82.9680 343° North 446 513 37,000  Level FlightAware ADS-B
Wed 11:34:47 PM 33.6110 -82.9980 342° North 446 513 37,000  Level FlightAware ADS-B
Wed 11:35:31 PM 33.6970 -83.0310 342° North 446 513 37,000  Level FlightAware ADS-B
Wed 11:36:11 PM 33.7760 -83.0610 342° North 448 516 37,000  Level FlightAware ADS-B
Wed 11:36:55 PM 33.8630 -83.0940 343° North 449 517 37,000  Level FlightAware ADS-B
Wed 11:37:35 PM 33.9420 -83.1240 343° North 450 518 37,000  Level FlightAware ADS-B
Wed 11:38:19 PM 34.0310 -83.1590 342° North 453 521 37,000  Level FlightAware ADS-B
Wed 11:38:58 PM 34.1110 -83.1890 343° North 457 526 37,000  Level FlightAware ADS-B
Wed 11:39:39 PM 34.1920 -83.2200 342° North 460 529 37,000  Level FlightAware ADS-B
Wed 11:40:17 PM 34.2714 -83.2510 342° North 464 534 37,000  Level FlightAware ADS-B
Wed 11:40:51 PM 34.3400 -83.2774 342° North 466 536 37,000  Level FlightAware ADS-B
Wed 11:41:23 PM 34.4067 -83.3032 342° North 469 540 37,000  Level FlightAware ADS-B
Wed 11:41:54 PM 34.4698 -83.3277 342° North 471 542 37,000  Level FlightAware ADS-B
Wed 11:42:28 PM 34.5390 -83.3540 343° North 471 542 37,000  Level FlightAware ADS-B
Wed 11:42:37 PM 34.5592 -83.3625 341° North 473 544 37,000  Level FlightAware ADS-B
Wed 11:43:16 PM 34.6418 -83.3946 342° North 474 545 37,000  Level FlightAware ADS-B
Wed 11:43:48 PM 34.7085 -83.4206 342° North 474 545 37,000  Level FlightAware ADS-B
Wed 11:44:19 PM 34.7723 -83.4455 342° North 474 545 37,000  Level FlightAware ADS-B
Wed 11:44:51 PM 34.8391 -83.4716 342° North 473 544 37,000  Level FlightAware ADS-B
Wed 11:45:22 PM 34.9036 -83.4968 342° North 473 544 37,000  Level FlightAware ADS-B
Wed 11:45:53 PM 34.9680 -83.5220 342° North 473 544 37,000  Level FlightAware ADS-B
Wed 11:46:17 PM 35.0179 -83.5418 342° North 472 543 37,000  Level FlightAware ADS-B
Wed 11:46:55 PM 35.0982 -83.5733 342° North 470 541 37,000  Level FlightAware ADS-B
Wed 11:47:31 PM 35.1719 -83.6023 342° North 469 540 37,000 -91 Level FlightAware ADS-B
Wed 11:48:01 PM 35.2336 -83.6268 342° North 468 539 36,900 -689 Descending FlightAware ADS-B
Wed 11:48:32 PM 35.2969 -83.6518 342° North 470 541 36,300 -1,377 Descending FlightAware ADS-B
Wed 11:49:02 PM 35.3595 -83.6766 342° North 473 544 35,500 -1,300 Descending FlightAware ADS-B
Wed 11:49:32 PM 35.4222 -83.7016 342° North 473 544 35,000 -500 Descending FlightAware ADS-B
Wed 11:50:02 PM 35.4847 -83.7264 342° North 472 543 35,000  Level FlightAware ADS-B
Wed 11:50:32 PM 35.5481 -83.7517 342° North 472 543 35,000  Level FlightAware ADS-B
Wed 11:51:03 PM 35.6120 -83.7772 342° North 474 545 35,000  Level FlightAware ADS-B
Wed 11:51:35 PM 35.6783 -83.8037 342° North 476 548 35,000  Level FlightAware ADS-B
Wed 11:52:06 PM 35.7441 -83.8299 342° North 478 550 35,000 -290 Level FlightAware ADS-B
Wed 11:52:37 PM 35.8078 -83.8555 342° North 478 550 34,700 -984 Descending FlightAware ADS-B
Wed 11:53:07 PM 35.8727 -83.8819 342° North 482 555 34,000 -1,258 Descending FlightAware ADS-B
Wed 11:53:39 PM 35.9388 -83.9152 338° Northwest 483 556 33,400 -1,075 Descending FlightAware ADS-B
Wed 11:54:14 PM 36.0080 -83.9554 335° Northwest 482 555 32,800 -1,015 Descending FlightAware ADS-B
Wed 11:54:44 PM 36.0689 -83.9919 334° Northwest 479 551 32,300 -1,000 Descending FlightAware ADS-B
Wed 11:55:14 PM 36.1286 -84.0277 334° Northwest 478 550 31,800 -1,031 Descending FlightAware ADS-B
Wed 11:55:48 PM 36.1954 -84.0678 334° Northwest 478 550 31,200 -1,031 Descending FlightAware ADS-B
Wed 11:56:18 PM 36.2553 -84.1037 334° Northwest 476 548 30,700 -984 Descending FlightAware ADS-B
Wed 11:56:49 PM 36.3178 -84.1410 334° Northwest 476 548 30,200 -689 Descending FlightAware ADS-B
Wed 11:57:19 PM 36.3770 -84.1767 334° Northwest 472 543 30,000 -197 Descending FlightAware ADS-B
Wed 11:57:50 PM 36.4375 -84.2132 334° Northwest 473 544 30,000  Level FlightAware ADS-B
Wed 11:58:21 PM 36.4983 -84.2499 334° Northwest 473 544 30,000  Level FlightAware ADS-B
Wed 11:58:52 PM 36.5587 -84.2861 334° Northwest 473 544 30,000 -581 Level FlightAware ADS-B
Wed 11:59:23 PM 36.6205 -84.3231 334° Northwest 477 549 29,400 -1,279 Descending FlightAware ADS-B
Wed 11:59:53 PM 36.6811 -84.3596 334° Northwest 474 545 28,700 -1,300 Descending FlightAware ADS-B
Thu 12:00:23 AM 36.7401 -84.3950 334° Northwest 468 539 28,100 -1,219 Descending FlightAware ADS-B
Thu 12:00:57 AM 36.8060 -84.4347 334° Northwest 465 535 27,400 -1,182 Descending FlightAware ADS-B
Thu 12:01:29 AM 36.8666 -84.4714 334° Northwest 459 528 26,800 -1,143 Descending FlightAware ADS-B
Thu 12:02:00 AM 36.9253 -84.5069 334° Northwest 459 528 26,200 -1,143 Descending FlightAware ADS-B
Thu 12:02:32 AM 36.9863 -84.5439 334° Northwest 454 522 25,600 -1,810 Descending FlightAware ADS-B
Thu 12:03:03 AM 37.0443 -84.5791 334° Northwest 452 520 24,300 -2,557 Descending FlightAware ADS-B
Thu 12:03:33 AM 37.1024 -84.6143 334° Northwest 456 525 23,000 -2,516 Descending FlightAware ADS-B
Thu 12:04:05 AM 37.1615 -84.6505 334° Northwest 453 521 21,700 -2,476 Descending FlightAware ADS-B
Thu 12:04:36 AM 37.2201 -84.6864 334° Northwest 444 511 20,400 -2,381 Descending FlightAware ADS-B
Thu 12:05:08 AM 37.2784 -84.7218 334° Northwest 433 498 19,200 -2,291 Descending FlightAware ADS-B
Thu 12:06:26 AM 37.4145 -84.8053 334° Northwest 424 488 16,200 -2,311 Descending FlightAware ADS-B
Thu 12:07:10 AM 37.4895 -84.8514 334° Northwest 400 460 14,500 -1,803 Descending FlightAware ADS-B
Thu 12:08:59 AM 37.6590 -84.9630 332° Northwest 10,700 -1,669 Descending FlightAware ADS-B
Thu 12:09:59 AM 37.7240 -85.0490 314° West 340 391 9,800 -720 Descending FlightAware ADS-B
Thu 12:10:14 AM 37.7410 -85.0710 314° West 324 373 9,800 -66 Level FlightAware ADS-B
Thu 12:11:30 AM 37.8040 -85.1600 312° West 298 343 9,700 -690 Descending FlightAware ADS-B
Thu 12:11:41 AM 37.8130 -85.1730 311° West 239 275 8,800 -2,462 Descending FlightAware ADS-B
Thu 12:12:09 AM 37.8240 -85.2070 292° West 218 251 8,100 -1,759 Descending FlightAware ADS-B
Thu 12:12:39 AM 37.8230 -85.2430 268° West 217 250 7,100 -2,182 Descending FlightAware ADS-B
Thu 12:13:04 AM 37.8220 -85.2780 268° West 219 252 6,100 -2,073 Descending FlightAware ADS-B
Thu 12:13:34 AM 37.8190 -85.3170 264° West 223 257 5,200 -871 Descending FlightAware ADS-B
Thu 12:14:06 AM 37.8170 -85.3490 265° West 223 257 5,200 -618 Level FlightAware ADS-B
Thu 12:14:42 AM 37.8150 -85.3970 267° West 223 257 4,500 -1,429 Descending FlightAware ADS-B
Thu 12:15:09 AM 37.8130 -85.4370 266° West 211 243 3,700 -1,297 Descending FlightAware ADS-B
Thu 12:15:19 AM 37.8120 -85.4470 263° West 196 226 3,700  Level FlightAware ADS-B
Thu 12:15:44 AM 37.8110 -85.4770 268° West 188 216 3,700 -655 Level FlightAware ADS-B
Thu 12:16:14 AM 37.8090 -85.5100 266° West 189 217 3,100 -1,000 Descending FlightAware ADS-B
Thu 12:16:44 AM 37.8080 -85.5430 268° West 187 215 2,700 -240 Descending FlightAware ADS-B
Thu 12:17:29 AM 37.8210 -85.5870 291° West 187 215 2,800  Climbing FlightAware ADS-B
Thu 12:17:54 AM 37.8360 -85.6050 317° Northwest 185 213 2,700  Descending FlightAware ADS-B
Thu 12:18:24 AM 37.8590 -85.6190 334° Northwest 183 211 2,800  Climbing FlightAware ADS-B
Thu 12:18:54 AM 37.8830 -85.6290 342° North 183 211 2,700 -150 Descending FlightAware ADS-B
Thu 12:19:04 AM 37.8910 -85.6320 344° North 183 211 2,700  Level FlightAware ADS-B
Thu 12:19:34 AM 37.9150 -85.6390 347° North 181 208 2,700 180 Level FlightAware ADS-B
Thu 12:20:44 AM 37.9722 -85.6578 347° North 183 211 3,000 137 Climbing Indianapolis Center
Thu 12:21:45 AM 38.0208 -85.6750 344° North 182 209 3,000 -246 Level Indianapolis Center
Thu 12:22:46 AM 38.0681 -85.6906 345° North 181 208 2,500 -639 Descending Indianapolis Center
Thu 12:23:47 AM 38.1078 -85.7031 346° North 168 193 1,700 -787 Descending Indianapolis Center
Thu 12:26:00 AM 38.1667 -85.7333 341° North  Level FlightAware Approximate

Login

Don't have an account? Register now (free) for customized features, flight alerts, and more!